PH-0046 weather

Taipan Place Heliport
Pasig, Philippines

Public forecast

Using degrees Celsius for public forecast. Weather courtesy of forecast.io.

METAR (pilot weather report)

Closest report is Ninoy Aquino International Airport, 5.2 nm (9.6 km) SSW. Retrieved 2019/09/23 10:00 UTC (2 minutes ago):

RPLL 231000Z 26006KT 9999 FEW022 BKN250 30/24 Q01012 NOSIG RMK A2988

TAF (pilot weather forecast)

Closest forecast is Ninoy Aquino International Airport, 5.2 nm (9.6 km) SSW. Retrieved 2019/09/23 06:00 UTC (4 hours ago):

TAF RPLL 230500Z 2306/2412 12005KT 9999 FEW025 SCT300 TX32/2306Z TN26/2321Z TEMPO 2306/2310 30010KT SCT023 SCT090 TEMPO 2310/2316 16008KT 9000 -SHRA FEW020CB SCT023 BKN100